Station Historical Data
Daily Summary for June 30, 2017 Units:  Both    English   Metric
« Previous Day
Next Day »
Daily Weekly Monthly Yearly Custom
  High: Low: Average:
Temperature: 76.0 °F /  24.4 °C 68.5 °F /  20.3 °C 72.5 °F /  22.5 °C
Dew Point: 68.3 °F /  20.2 °C 64.2 °F /  17.9 °C 66 °F /  18.9 °C
Humidity: 90% 74% 80%
Wind Speed: 13.0mph /  20.9km/h - 4.4mph /  7.1km/h
Wind Gust: 22.0mph /  35.4km/h - -
Wind- - SW
Pressure: 29.89 in /  1012.1 hPa 29.82 in /  1009.7 hPa -
Precipitation: 0.00 in /  0 mm    
Historical Graphs
 
 
Tabular Data for June 30, 2017
Time Temperature Dew Point Pressure Wind Wind Speed Wind Gust Humidity Rainfall Rate (Hourly)
00:04 73.3 °F /  22.9 °C 65.7 °F /  18.7 °C 29.84in /  1010.4hPa Calm   3.0mph /  4.8km/h 77% 0.00in /  0mm
00:09 73.0 °F /  22.8 °C 65.4 °F /  18.6 °C 29.83in /  1010hPa Calm   3.0mph /  4.8km/h 77% 0.00in /  0mm
00:14 72.7 °F /  22.6 °C 65.4 °F /  18.6 °C 29.83in /  1010hPa WSW 2.0mph /  3.2km/h 2.0mph /  3.2km/h 78% 0.00in /  0mm
00:19 72.5 °F /  22.5 °C 65.2 °F /  18.4 °C 29.83in /  1010hPa Calm   2.0mph /  3.2km/h 78% 0.00in /  0mm
00:24 72.4 °F /  22.4 °C 65.5 °F /  18.6 °C 29.83in /  1010hPa Calm   2.0mph /  3.2km/h 79% 0.00in /  0mm
00:29 72.5 °F /  22.5 °C 65.2 °F /  18.4 °C 29.83in /  1010hPa SSW 1.0mph /  1.6km/h 4.0mph /  6.4km/h 78% 0.00in /  0mm
00:34 72.4 °F /  22.4 °C 65.2 °F /  18.4 °C 29.83in /  1010hPa SW 2.0mph /  3.2km/h 4.0mph /  6.4km/h 78% 0.00in /  0mm
00:39 72.5 °F /  22.5 °C 65.2 °F /  18.4 °C 29.83in /  1010hPa SW 2.0mph /  3.2km/h 5.0mph /  8km/h 78% 0.00in /  0mm
00:44 72.7 °F /  22.6 °C 65.1 °F /  18.4 °C 29.83in /  1010hPa SSW 1.0mph /  1.6km/h 6.0mph /  9.7km/h 77% 0.00in /  0mm
00:49 73.0 °F /  22.8 °C 65.4 °F /  18.6 °C 29.83in /  1010hPa WSW 5.0mph /  8km/h 7.0mph /  11.3km/h 77% 0.00in /  0mm
00:54 73.0 °F /  22.8 °C 65.0 °F /  18.3 °C 29.83in /  1010hPa SW 3.0mph /  4.8km/h 7.0mph /  11.3km/h 76% 0.00in /  0mm
00:59 73.2 °F /  22.9 °C 65.2 °F /  18.4 °C 29.84in /  1010.4hPa West 5.0mph /  8km/h 7.0mph /  11.3km/h 76% 0.00in /  0mm
01:04 73.5 °F /  23.1 °C 65.1 °F /  18.4 °C 29.84in /  1010.4hPa SW 1.0mph /  1.6km/h 9.0mph /  14.5km/h 75% 0.00in /  0mm
01:09 73.7 °F /  23.2 °C 65.3 °F /  18.5 °C 29.84in /  1010.4hPa SSW 5.0mph /  8km/h 8.0mph /  12.9km/h 75% 0.00in /  0mm
01:14 73.9 °F /  23.3 °C 65.1 °F /  18.4 °C 29.84in /  1010.4hPa SW 5.0mph /  8km/h 9.0mph /  14.5km/h 74% 0.00in /  0mm
01:19 74.0 °F /  23.3 °C 65.2 °F /  18.4 °C 29.84in /  1010.4hPa SW 2.0mph /  3.2km/h 8.0mph /  12.9km/h 74% 0.00in /  0mm
01:24 74.1 °F /  23.4 °C 65.3 °F /  18.5 °C 29.84in /  1010.4hPa SW 4.0mph /  6.4km/h 9.0mph /  14.5km/h 74% 0.00in /  0mm
01:29 74.0 °F /  23.3 °C 65.2 °F /  18.4 °C 29.84in /  1010.4hPa SW 4.0mph /  6.4km/h 10.0mph /  16.1km/h 74% 0.00in /  0mm
01:34 74.1 °F /  23.4 °C 65.3 °F /  18.5 °C 29.84in /  1010.4hPa SW 3.0mph /  4.8km/h 9.0mph /  14.5km/h 74% 0.00in /  0mm
01:39 74.0 °F /  23.3 °C 65.2 °F /  18.4 °C 29.85in /  1010.7hPa SW 5.0mph /  8km/h 9.0mph /  14.5km/h 74% 0.00in /  0mm
01:44 74.0 °F /  23.3 °C 65.2 °F /  18.4 °C 29.85in /  1010.7hPa SW 11.0mph /  17.7km/h 12.0mph /  19.3km/h 74% 0.00in /  0mm
01:49 74.1 °F /  23.4 °C 65.3 °F /  18.5 °C 29.85in /  1010.7hPa SW 4.0mph /  6.4km/h 11.0mph /  17.7km/h 74% 0.00in /  0mm
01:54 74.0 °F /  23.3 °C 65.6 °F /  18.7 °C 29.85in /  1010.7hPa WSW 4.0mph /  6.4km/h 11.0mph /  17.7km/h 75% 0.00in /  0mm
01:59 73.9 °F /  23.3 °C 65.5 °F /  18.6 °C 29.85in /  1010.7hPa West 5.0mph /  8km/h 10.0mph /  16.1km/h 75% 0.00in /  0mm
02:04 74.0 °F /  23.3 °C 65.6 °F /  18.7 °C 29.85in /  1010.7hPa WSW 4.0mph /  6.4km/h 10.0mph /  16.1km/h 75% 0.00in /  0mm
02:09 74.0 °F /  23.3 °C 65.6 °F /  18.7 °C 29.85in /  1010.7hPa WSW 5.0mph /  8km/h 12.0mph /  19.3km/h 75% 0.00in /  0mm
02:14 74.1 °F /  23.4 °C 65.7 °F /  18.7 °C 29.85in /  1010.7hPa WSW 5.0mph /  8km/h 12.0mph /  19.3km/h 75% 0.00in /  0mm
02:19 74.1 °F /  23.4 °C 65.7 °F /  18.7 °C 29.85in /  1010.7hPa WSW 2.0mph /  3.2km/h 9.0mph /  14.5km/h 75% 0.00in /  0mm
02:24 74.2 °F /  23.4 °C 65.8 °F /  18.8 °C 29.85in /  1010.7hPa WSW 8.0mph /  12.9km/h 10.0mph /  16.1km/h 75% 0.00in /  0mm
02:29 74.2 °F /  23.4 °C 65.8 °F /  18.8 °C 29.85in /  1010.7hPa SW 7.0mph /  11.3km/h 12.0mph /  19.3km/h 75% 0.00in /  0mm
02:34 74.2 °F /  23.4 °C 65.8 °F /  18.8 °C 29.85in /  1010.7hPa WSW 4.0mph /  6.4km/h 10.0mph /  16.1km/h 75% 0.00in /  0mm
02:39 74.0 °F /  23.3 °C 65.6 °F /  18.7 °C 29.85in /  1010.7hPa WSW 5.0mph /  8km/h 7.0mph /  11.3km/h 75% 0.00in /  0mm
02:44 73.9 °F /  23.3 °C 65.9 °F /  18.8 °C 29.85in /  1010.7hPa SW 4.0mph /  6.4km/h 8.0mph /  12.9km/h 76% 0.00in /  0mm
02:49 73.9 °F /  23.3 °C 65.9 °F /  18.8 °C 29.85in /  1010.7hPa West 4.0mph /  6.4km/h 8.0mph /  12.9km/h 76% 0.00in /  0mm
02:54 73.8 °F /  23.2 °C 65.4 °F /  18.6 °C 29.85in /  1010.7hPa SW 4.0mph /  6.4km/h 8.0mph /  12.9km/h 75% 0.00in /  0mm
02:59 73.9 °F /  23.3 °C 65.5 °F /  18.6 °C 29.85in /  1010.7hPa WSW 5.0mph /  8km/h 12.0mph /  19.3km/h 75% 0.00in /  0mm
03:04 74.0 °F /  23.3 °C 65.6 °F /  18.7 °C 29.85in /  1010.7hPa WSW 5.0mph /  8km/h 12.0mph /  19.3km/h 75% 0.00in /  0mm
03:09 74.0 °F /  23.3 °C 65.6 °F /  18.7 °C 29.85in /  1010.7hPa SW 4.0mph /  6.4km/h 9.0mph /  14.5km/h 75% 0.00in /  0mm
03:14 73.9 °F /  23.3 °C 65.5 °F /  18.6 °C 29.85in /  1010.7hPa SW 4.0mph /  6.4km/h 8.0mph /  12.9km/h 75% 0.00in /  0mm
03:19 73.9 °F /  23.3 °C 65.5 °F /  18.6 °C 29.85in /  1010.7hPa SW 4.0mph /  6.4km/h 8.0mph /  12.9km/h 75% 0.00in /  0mm
03:24 73.9 °F /  23.3 °C 65.1 °F /  18.4 °C 29.84in /  1010.4hPa SSW 3.0mph /  4.8km/h 8.0mph /  12.9km/h 74% 0.00in /  0mm
03:29 73.7 °F /  23.2 °C 65.3 °F /  18.5 °C 29.84in /  1010.4hPa WSW 4.0mph /  6.4km/h 7.0mph /  11.3km/h 75% 0.00in /  0mm
03:34 73.7 °F /  23.2 °C 65.3 °F /  18.5 °C 29.84in /  1010.4hPa SW 2.0mph /  3.2km/h 7.0mph /  11.3km/h 75% 0.00in /  0mm
03:39 73.5 °F /  23.1 °C 65.1 °F /  18.4 °C 29.84in /  1010.4hPa SW 2.0mph /  3.2km/h 6.0mph /  9.7km/h 75% 0.00in /  0mm
03:44 73.4 °F /  23 °C 65.0 °F /  18.3 °C 29.83in /  1010hPa SW 1.0mph /  1.6km/h 7.0mph /  11.3km/h 75% 0.00in /  0mm
03:49 73.3 °F /  22.9 °C 64.9 °F /  18.3 °C 29.83in /  1010hPa SW 3.0mph /  4.8km/h 7.0mph /  11.3km/h 75% 0.00in /  0mm
03:54 73.3 °F /  22.9 °C 64.9 °F /  18.3 °C 29.83in /  1010hPa SW 3.0mph /  4.8km/h 6.0mph /  9.7km/h 75% 0.00in /  0mm
03:59 73.2 °F /  22.9 °C 64.8 °F /  18.2 °C 29.83in /  1010hPa SW 3.0mph /  4.8km/h 6.0mph /  9.7km/h 75% 0.00in /  0mm
04:04 73.0 °F /  22.8 °C 64.6 °F /  18.1 °C 29.83in /  1010hPa SW 2.0mph /  3.2km/h 6.0mph /  9.7km/h 75% 0.00in /  0mm
04:09 72.9 °F /  22.7 °C 64.9 °F /  18.3 °C 29.83in /  1010hPa SW 2.0mph /  3.2km/h 5.0mph /  8km/h 76% 0.00in /  0mm
04:14 72.7 °F /  22.6 °C 64.7 °F /  18.2 °C 29.83in /  1010hPa SSW 2.0mph /  3.2km/h 6.0mph /  9.7km/h 76% 0.00in /  0mm
04:19 72.8 °F /  22.7 °C 64.8 °F /  18.2 °C 29.82in /  1009.7hPa SW 2.0mph /  3.2km/h 6.0mph /  9.7km/h 76% 0.00in /  0mm
04:24 72.8 °F /  22.7 °C 64.8 °F /  18.2 °C 29.82in /  1009.7hPa SSW 4.0mph /  6.4km/h 6.0mph /  9.7km/h 76% 0.00in /  0mm
04:29 72.8 °F /  22.7 °C 65.2 °F /  18.4 °C 29.83in /  1010hPa SSW 3.0mph /  4.8km/h 8.0mph /  12.9km/h 77% 0.00in /  0mm
04:34 72.7 °F /  22.6 °C 65.1 °F /  18.4 °C 29.83in /  1010hPa Calm   4.0mph /  6.4km/h 77% 0.00in /  0mm
04:39 72.6 °F /  22.6 °C 65.0 °F /  18.3 °C 29.83in /  1010hPa SSW 1.0mph /  1.6km/h 6.0mph /  9.7km/h 77% 0.00in /  0mm
04:44 72.6 °F /  22.6 °C 65.0 °F /  18.3 °C 29.83in /  1010hPa SSW 6.0mph /  9.7km/h 7.0mph /  11.3km/h 77% 0.00in /  0mm
04:49 72.5 °F /  22.5 °C 64.9 °F /  18.3 °C 29.83in /  1010hPa SSW 2.0mph /  3.2km/h 7.0mph /  11.3km/h 77% 0.00in /  0mm
04:54 72.5 °F /  22.5 °C 64.9 °F /  18.3 °C 29.84in /  1010.4hPa SW 2.0mph /  3.2km/h 6.0mph /  9.7km/h 77% 0.00in /  0mm
04:59 72.4 °F /  22.4 °C 64.8 °F /  18.2 °C 29.84in /  1010.4hPa SW 2.0mph /  3.2km/h 5.0mph /  8km/h 77% 0.00in /  0mm
05:04 72.3 °F /  22.4 °C 65.1 °F /  18.4 °C 29.84in /  1010.4hPa SW 2.0mph /  3.2km/h 6.0mph /  9.7km/h 78% 0.00in /  0mm
05:09 72.2 °F /  22.3 °C 65.0 °F /  18.3 °C 29.84in /  1010.4hPa SW 2.0mph /  3.2km/h 6.0mph /  9.7km/h 78% 0.00in /  0mm
05:14 72.2 °F /  22.3 °C 65.0 °F /  18.3 °C 29.84in /  1010.4hPa SSW 2.0mph /  3.2km/h 7.0mph /  11.3km/h 78% 0.00in /  0mm
05:19 72.3 °F /  22.4 °C 65.1 °F /  18.4 °C 29.85in /  1010.7hPa SW 2.0mph /  3.2km/h 7.0mph /  11.3km/h 78% 0.00in /  0mm
05:24 72.4 °F /  22.4 °C 65.2 °F /  18.4 °C 29.85in /  1010.7hPa SW 5.0mph /  8km/h 8.0mph /  12.9km/h 78% 0.00in /  0mm
05:29 72.5 °F /  22.5 °C 65.2 °F /  18.4 °C 29.85in /  1010.7hPa SW 5.0mph /  8km/h 7.0mph /  11.3km/h 78% 0.00in /  0mm
05:34 72.6 °F /  22.6 °C 65.3 °F /  18.5 °C 29.85in /  1010.7hPa SSW 1.0mph /  1.6km/h 7.0mph /  11.3km/h 78% 0.00in /  0mm
05:39 72.6 °F /  22.6 °C 65.3 °F /  18.5 °C 29.86in /  1011.1hPa South 4.0mph /  6.4km/h 9.0mph /  14.5km/h 78% 0.00in /  0mm
05:44 72.4 °F /  22.4 °C 65.5 °F /  18.6 °C 29.86in /  1011.1hPa WSW 4.0mph /  6.4km/h 12.0mph /  19.3km/h 79% 0.00in /  0mm
05:49 72.2 °F /  22.3 °C 65.3 °F /  18.5 °C 29.87in /  1011.4hPa SW 5.0mph /  8km/h 12.0mph /  19.3km/h 79% 0.00in /  0mm
05:54 72.2 °F /  22.3 °C 65.3 °F /  18.5 °C 29.87in /  1011.4hPa SW 6.0mph /  9.7km/h 13.0mph /  20.9km/h 79% 0.00in /  0mm
05:59 72.3 °F /  22.4 °C 65.1 °F /  18.4 °C 29.88in /  1011.7hPa WSW 7.0mph /  11.3km/h 15.0mph /  24.1km/h 78% 0.00in /  0mm
06:04 72.4 °F /  22.4 °C 65.2 °F /  18.4 °C 29.88in /  1011.7hPa WSW 8.0mph /  12.9km/h 17.0mph /  27.4km/h 78% 0.00in /  0mm
06:09 72.2 °F /  22.3 °C 65.0 °F /  18.3 °C 29.88in /  1011.7hPa WSW 12.0mph /  19.3km/h 22.0mph /  35.4km/h 78% 0.00in /  0mm
06:14 72.1 °F /  22.3 °C 64.9 °F /  18.3 °C 29.87in /  1011.4hPa South 10.0mph /  16.1km/h 17.0mph /  27.4km/h 78% 0.00in /  0mm
06:19 71.6 °F /  22 °C 65.1 °F /  18.4 °C 29.88in /  1011.7hPa SW 12.0mph /  19.3km/h 19.0mph /  30.6km/h 80% 0.00in /  0mm
06:24 71.2 °F /  21.8 °C 65.1 °F /  18.4 °C 29.88in /  1011.7hPa WSW 9.0mph /  14.5km/h 20.0mph /  32.2km/h 81% 0.00in /  0mm
06:29 70.6 °F /  21.4 °C 64.8 °F /  18.2 °C 29.88in /  1011.7hPa WSW 7.0mph /  11.3km/h 16.0mph /  25.7km/h 82% 0.01in /  0.25mm
06:34 70.1 °F /  21.2 °C 65.0 °F /  18.3 °C 29.88in /  1011.7hPa South 8.0mph /  12.9km/h 15.0mph /  24.1km/h 84% 0.01in /  0.25mm
06:39 69.7 °F /  20.9 °C 65.0 °F /  18.3 °C 29.89in /  1012.1hPa SW 3.0mph /  4.8km/h 14.0mph /  22.5km/h 85% 0.01in /  0.25mm
06:44 69.4 °F /  20.8 °C 65.0 °F /  18.3 °C 29.89in /  1012.1hPa SW 4.0mph /  6.4km/h 15.0mph /  24.1km/h 86% 0.02in /  0.51mm
06:49 69.1 °F /  20.6 °C 65.1 °F /  18.4 °C 29.89in /  1012.1hPa WSW 6.0mph /  9.7km/h 15.0mph /  24.1km/h 87% 0.03in /  0.76mm
06:54 68.9 °F /  20.5 °C 65.2 °F /  18.4 °C 29.89in /  1012.1hPa WSW 7.0mph /  11.3km/h 12.0mph /  19.3km/h 88% 0.03in /  0.76mm
06:59 68.7 °F /  20.4 °C 65.0 °F /  18.3 °C 29.89in /  1012.1hPa West 4.0mph /  6.4km/h 8.0mph /  12.9km/h 88% 0.03in /  0.76mm
07:04 68.6 °F /  20.3 °C 64.9 °F /  18.3 °C 29.89in /  1012.1hPa SSW 3.0mph /  4.8km/h 10.0mph /  16.1km/h 88% 0.03in /  0.76mm
07:09 68.5 °F /  20.3 °C 65.1 °F /  18.4 °C 29.89in /  1012.1hPa SSW 4.0mph /  6.4km/h 11.0mph /  17.7km/h 89% 0.03in /  0.76mm
07:14 68.5 °F /  20.3 °C 65.1 °F /  18.4 °C 29.89in /  1012.1hPa WSW 5.0mph /  8km/h 8.0mph /  12.9km/h 89% 0.04in /  1.02mm
07:19 68.6 °F /  20.3 °C 65.5 °F /  18.6 °C 29.89in /  1012.1hPa SW 5.0mph /  8km/h 10.0mph /  16.1km/h 90% 0.04in /  1.02mm
07:24 68.7 °F /  20.4 °C 65.6 °F /  18.7 °C 29.89in /  1012.1hPa SW 5.0mph /  8km/h 13.0mph /  20.9km/h 90% 0.04in /  1.02mm
07:29 68.7 °F /  20.4 °C 65.6 °F /  18.7 °C 29.89in /  1012.1hPa SW 6.0mph /  9.7km/h 15.0mph /  24.1km/h 90% 0.03in /  0.76mm
07:34 68.8 °F /  20.4 °C 65.7 °F /  18.7 °C 29.89in /  1012.1hPa SW 6.0mph /  9.7km/h 15.0mph /  24.1km/h 90% 0.03in /  0.76mm
07:39 68.7 °F /  20.4 °C 65.6 °F /  18.7 °C 29.89in /  1012.1hPa SW 5.0mph /  8km/h 11.0mph /  17.7km/h 90% 0.02in /  0.51mm
07:44 68.8 °F /  20.4 °C 65.7 °F /  18.7 °C 29.89in /  1012.1hPa SSW 4.0mph /  6.4km/h 9.0mph /  14.5km/h 90% 0.02in /  0.51mm
07:49 69.0 °F /  20.6 °C 65.9 °F /  18.8 °C 29.89in /  1012.1hPa SW 7.0mph /  11.3km/h 8.0mph /  12.9km/h 90% 0.01in /  0.25mm
07:54 69.0 °F /  20.6 °C 65.9 °F /  18.8 °C 29.89in /  1012.1hPa SW 4.0mph /  6.4km/h 9.0mph /  14.5km/h 90% 0.01in /  0.25mm
07:59 69.2 °F /  20.7 °C 66.1 °F /  18.9 °C 29.88in /  1011.7hPa South 3.0mph /  4.8km/h 8.0mph /  12.9km/h 90% 0.01in /  0.25mm
08:04 69.3 °F /  20.7 °C 65.9 °F /  18.8 °C 29.88in /  1011.7hPa WSW 3.0mph /  4.8km/h 10.0mph /  16.1km/h 89% 0.01in /  0.25mm
08:09 69.5 °F /  20.8 °C 66.1 °F /  18.9 °C 29.88in /  1011.7hPa SW 3.0mph /  4.8km/h 6.0mph /  9.7km/h 89% 0.01in /  0.25mm
08:14 69.7 °F /  20.9 °C 66.3 °F /  19.1 °C 29.87in /  1011.4hPa SW 4.0mph /  6.4km/h 8.0mph /  12.9km/h 89% 0.00in /  0mm
08:19 70.0 °F /  21.1 °C 66.6 °F /  19.2 °C 29.87in /  1011.4hPa SW 3.0mph /  4.8km/h 8.0mph /  12.9km/h 89% 0.00in /  0mm
08:24 70.4 °F /  21.3 °C 67.0 °F /  19.4 °C 29.87in /  1011.4hPa WSW 2.0mph /  3.2km/h 5.0mph /  8km/h 89% 0.00in /  0mm
08:29 70.4 °F /  21.3 °C 66.7 °F /  19.3 °C 29.87in /  1011.4hPa WSW 2.0mph /  3.2km/h 5.0mph /  8km/h 88% 0.00in /  0mm
08:34 70.6 °F /  21.4 °C 66.9 °F /  19.4 °C 29.87in /  1011.4hPa WSW 2.0mph /  3.2km/h 5.0mph /  8km/h 88% 0.00in /  0mm
08:39 70.6 °F /  21.4 °C 66.5 °F /  19.2 °C 29.87in /  1011.4hPa WSW 2.0mph /  3.2km/h 5.0mph /  8km/h 87% 0.00in /  0mm
08:44 70.7 °F /  21.5 °C 66.6 °F /  19.2 °C 29.86in /  1011.1hPa SSW 2.0mph /  3.2km/h 4.0mph /  6.4km/h 87% 0.00in /  0mm
08:49 70.7 °F /  21.5 °C 66.6 °F /  19.2 °C 29.87in /  1011.4hPa Calm   4.0mph /  6.4km/h 87% 0.00in /  0mm
08:54 70.8 °F /  21.6 °C 66.4 °F /  19.1 °C 29.87in /  1011.4hPa SW 2.0mph /  3.2km/h 6.0mph /  9.7km/h 86% 0.00in /  0mm
08:59 70.6 °F /  21.4 °C 66.2 °F /  19 °C 29.87in /  1011.4hPa SW 2.0mph /  3.2km/h 6.0mph /  9.7km/h 86% 0.00in /  0mm
09:04 70.5 °F /  21.4 °C 65.8 °F /  18.8 °C 29.87in /  1011.4hPa WSW 6.0mph /  9.7km/h 6.0mph /  9.7km/h 85% 0.00in /  0mm
09:09 70.4 °F /  21.3 °C 65.7 °F /  18.7 °C 29.87in /  1011.4hPa SW 4.0mph /  6.4km/h 7.0mph /  11.3km/h 85% 0.00in /  0mm
09:14 70.4 °F /  21.3 °C 65.3 °F /  18.5 °C 29.86in /  1011.1hPa Calm   6.0mph /  9.7km/h 84% 0.00in /  0mm
09:19 70.3 °F /  21.3 °C 65.6 °F /  18.7 °C 29.86in /  1011.1hPa SSW 3.0mph /  4.8km/h 7.0mph /  11.3km/h 85% 0.00in /  0mm
09:24 70.4 °F /  21.3 °C 65.7 °F /  18.7 °C 29.86in /  1011.1hPa SSW 2.0mph /  3.2km/h 7.0mph /  11.3km/h 85% 0.00in /  0mm
09:29 70.2 °F /  21.2 °C 65.5 °F /  18.6 °C 29.86in /  1011.1hPa South 3.0mph /  4.8km/h 6.0mph /  9.7km/h 85% 0.00in /  0mm
09:34 70.1 °F /  21.2 °C 65.4 °F /  18.6 °C 29.86in /  1011.1hPa Calm   5.0mph /  8km/h 85% 0.01in /  0.25mm
09:39 70.2 °F /  21.2 °C 65.8 °F /  18.8 °C 29.86in /  1011.1hPa South 2.0mph /  3.2km/h 4.0mph /  6.4km/h 86% 0.01in /  0.25mm
09:44 70.4 °F /  21.3 °C 66.0 °F /  18.9 °C 29.86in /  1011.1hPa SSW 2.0mph /  3.2km/h 6.0mph /  9.7km/h 86% 0.01in /  0.25mm
09:49 70.4 °F /  21.3 °C 66.0 °F /  18.9 °C 29.86in /  1011.1hPa SSW 4.0mph /  6.4km/h 9.0mph /  14.5km/h 86% 0.01in /  0.25mm
09:54 70.5 °F /  21.4 °C 66.1 °F /  18.9 °C 29.86in /  1011.1hPa SSW 4.0mph /  6.4km/h 9.0mph /  14.5km/h 86% 0.01in /  0.25mm
09:59 70.8 °F /  21.6 °C 66.4 °F /  19.1 °C 29.86in /  1011.1hPa SSW 3.0mph /  4.8km/h 7.0mph /  11.3km/h 86% 0.01in /  0.25mm
10:04 71.1 °F /  21.7 °C 66.4 °F /  19.1 °C 29.86in /  1011.1hPa South 4.0mph /  6.4km/h 8.0mph /  12.9km/h 85% 0.01in /  0.25mm
10:09 71.5 °F /  21.9 °C 67.1 °F /  19.5 °C 29.87in /  1011.4hPa SSW 4.0mph /  6.4km/h 8.0mph /  12.9km/h 86% 0.01in /  0.25mm
10:14 71.3 °F /  21.8 °C 66.6 °F /  19.2 °C 29.87in /  1011.4hPa SW 2.0mph /  3.2km/h 7.0mph /  11.3km/h 85% 0.01in /  0.25mm
10:19 70.7 °F /  21.5 °C 65.6 °F /  18.7 °C 29.87in /  1011.4hPa SW 3.0mph /  4.8km/h 8.0mph /  12.9km/h 84% 0.01in /  0.25mm
10:24 70.5 °F /  21.4 °C 65.8 °F /  18.8 °C 29.86in /  1011.1hPa SW 3.0mph /  4.8km/h 8.0mph /  12.9km/h 85% 0.01in /  0.25mm
10:29 70.5 °F /  21.4 °C 65.8 °F /  18.8 °C 29.86in /  1011.1hPa Calm   7.0mph /  11.3km/h 85% 0.01in /  0.25mm
10:34 70.6 °F /  21.4 °C 65.9 °F /  18.8 °C 29.86in /  1011.1hPa WSW 2.0mph /  3.2km/h 5.0mph /  8km/h 85% 0.00in /  0mm
10:39 70.5 °F /  21.4 °C 65.8 °F /  18.8 °C 29.87in /  1011.4hPa SW 5.0mph /  8km/h 8.0mph /  12.9km/h 85% 0.00in /  0mm
10:44 70.5 °F /  21.4 °C 65.8 °F /  18.8 °C 29.86in /  1011.1hPa SW 1.0mph /  1.6km/h 6.0mph /  9.7km/h 85% 0.00in /  0mm
10:49 70.6 °F /  21.4 °C 65.9 °F /  18.8 °C 29.86in /  1011.1hPa SW 3.0mph /  4.8km/h 5.0mph /  8km/h 85% 0.00in /  0mm
10:54 71.0 °F /  21.7 °C 66.3 °F /  19.1 °C 29.86in /  1011.1hPa WSW 3.0mph /  4.8km/h 6.0mph /  9.7km/h 85% 0.00in /  0mm
10:59 71.9 °F /  22.2 °C 66.8 °F /  19.3 °C 29.85in /  1010.7hPa SW 3.0mph /  4.8km/h 7.0mph /  11.3km/h 84% 0.00in /  0mm
11:04 72.8 °F /  22.7 °C 67.3 °F /  19.6 °C 29.85in /  1010.7hPa SSW 3.0mph /  4.8km/h 7.0mph /  11.3km/h 83% 0.00in /  0mm
11:09 73.1 °F /  22.8 °C 67.3 °F /  19.6 °C 29.85in /  1010.7hPa SSW 4.0mph /  6.4km/h 9.0mph /  14.5km/h 82% 0.00in /  0mm
11:14 73.7 °F /  23.2 °C 67.9 °F /  19.9 °C 29.85in /  1010.7hPa SSW 4.0mph /  6.4km/h 9.0mph /  14.5km/h 82% 0.00in /  0mm
11:19 74.4 °F /  23.6 °C 68.2 °F /  20.1 °C 29.85in /  1010.7hPa SW 6.0mph /  9.7km/h 8.0mph /  12.9km/h 81% 0.00in /  0mm
11:24 74.8 °F /  23.8 °C 68.2 °F /  20.1 °C 29.85in /  1010.7hPa SSE 3.0mph /  4.8km/h 10.0mph /  16.1km/h 80% 0.00in /  0mm
11:29 74.4 °F /  23.6 °C 68.2 °F /  20.1 °C 29.85in /  1010.7hPa SW 5.0mph /  8km/h 10.0mph /  16.1km/h 81% 0.00in /  0mm
11:34 74.0 °F /  23.3 °C 67.4 °F /  19.7 °C 29.85in /  1010.7hPa WSW 6.0mph /  9.7km/h 11.0mph /  17.7km/h 80% 0.00in /  0mm
11:39 73.8 °F /  23.2 °C 67.2 °F /  19.6 °C 29.85in /  1010.7hPa WSW 3.0mph /  4.8km/h 12.0mph /  19.3km/h 80% 0.00in /  0mm
11:44 74.1 °F /  23.4 °C 67.9 °F /  19.9 °C 29.86in /  1011.1hPa WSW 4.0mph /  6.4km/h 9.0mph /  14.5km/h 81% 0.00in /  0mm
11:49 74.0 °F /  23.3 °C 67.1 °F /  19.5 °C 29.85in /  1010.7hPa SW 4.0mph /  6.4km/h 9.0mph /  14.5km/h 79% 0.00in /  0mm
11:54 74.6 °F /  23.7 °C 68.0 °F /  20 °C 29.86in /  1011.1hPa SW 4.0mph /  6.4km/h 10.0mph /  16.1km/h 80% 0.00in /  0mm
11:59 74.8 °F /  23.8 °C 67.8 °F /  19.9 °C 29.86in /  1011.1hPa SW 5.0mph /  8km/h 10.0mph /  16.1km/h 79% 0.00in /  0mm
12:04 74.5 °F /  23.6 °C 67.2 °F /  19.6 °C 29.86in /  1011.1hPa SW 5.0mph /  8km/h 10.0mph /  16.1km/h 78% 0.00in /  0mm
12:09 74.3 °F /  23.5 °C 67.4 °F /  19.7 °C 29.85in /  1010.7hPa WSW 5.0mph /  8km/h 11.0mph /  17.7km/h 79% 0.00in /  0mm
12:14 74.2 °F /  23.4 °C 67.3 °F /  19.6 °C 29.85in /  1010.7hPa West 5.0mph /  8km/h 10.0mph /  16.1km/h 79% 0.00in /  0mm
12:19 74.4 °F /  23.6 °C 67.5 °F /  19.7 °C 29.86in /  1011.1hPa SW 6.0mph /  9.7km/h 12.0mph /  19.3km/h 79% 0.00in /  0mm
12:24 74.2 °F /  23.4 °C 67.6 °F /  19.8 °C 29.86in /  1011.1hPa WSW 5.0mph /  8km/h 12.0mph /  19.3km/h 80% 0.00in /  0mm
12:29 73.9 °F /  23.3 °C 67.3 °F /  19.6 °C 29.86in /  1011.1hPa WSW 7.0mph /  11.3km/h 12.0mph /  19.3km/h 80% 0.00in /  0mm
12:34 73.1 °F /  22.8 °C 67.3 °F /  19.6 °C 29.86in /  1011.1hPa SW 7.0mph /  11.3km/h 15.0mph /  24.1km/h 82% 0.02in /  0.51mm
12:39 71.9 °F /  22.2 °C 67.1 °F /  19.5 °C 29.86in /  1011.1hPa WNW 7.0mph /  11.3km/h 12.0mph /  19.3km/h 85% 0.02in /  0.51mm
12:44 71.3 °F /  21.8 °C 66.9 °F /  19.4 °C 29.86in /  1011.1hPa WNW 4.0mph /  6.4km/h 14.0mph /  22.5km/h 86% 0.02in /  0.51mm
12:49 71.1 °F /  21.7 °C 67.4 °F /  19.7 °C 29.85in /  1010.7hPa West 5.0mph /  8km/h 14.0mph /  22.5km/h 88% 0.02in /  0.51mm
12:54 71.5 °F /  21.9 °C 67.4 °F /  19.7 °C 29.85in /  1010.7hPa West 4.0mph /  6.4km/h 9.0mph /  14.5km/h 87% 0.02in /  0.51mm
12:59 71.7 °F /  22.1 °C 67.6 °F /  19.8 °C 29.86in /  1011.1hPa WSW 4.0mph /  6.4km/h 9.0mph /  14.5km/h 87% 0.02in /  0.51mm
13:04 71.6 °F /  22 °C 67.2 °F /  19.6 °C 29.86in /  1011.1hPa WSW 4.0mph /  6.4km/h 10.0mph /  16.1km/h 86% 0.02in /  0.51mm
13:09 71.3 °F /  21.8 °C 66.6 °F /  19.2 °C 29.86in /  1011.1hPa WSW 4.0mph /  6.4km/h 12.0mph /  19.3km/h 85% 0.02in /  0.51mm
13:14 71.4 °F /  21.9 °C 66.7 °F /  19.3 °C 29.86in /  1011.1hPa West 3.0mph /  4.8km/h 13.0mph /  20.9km/h 85% 0.02in /  0.51mm
13:19 71.9 °F /  22.2 °C 67.1 °F /  19.5 °C 29.86in /  1011.1hPa WSW 6.0mph /  9.7km/h 13.0mph /  20.9km/h 85% 0.02in /  0.51mm
13:24 72.4 °F /  22.4 °C 66.9 °F /  19.4 °C 29.86in /  1011.1hPa WSW 6.0mph /  9.7km/h 13.0mph /  20.9km/h 83% 0.02in /  0.51mm
13:29 72.2 °F /  22.3 °C 67.1 °F /  19.5 °C 29.86in /  1011.1hPa WSW 7.0mph /  11.3km/h 18.0mph /  29km/h 84% 0.02in /  0.51mm
13:34 73.3 °F /  22.9 °C 67.5 °F /  19.7 °C 29.86in /  1011.1hPa WSW 7.0mph /  11.3km/h 18.0mph /  29km/h 82% 0.00in /  0mm
13:39 73.4 °F /  23 °C 67.6 °F /  19.8 °C 29.86in /  1011.1hPa WSW 1.0mph /  1.6km/h 13.0mph /  20.9km/h 82% 0.00in /  0mm
13:44 73.4 °F /  23 °C 67.2 °F /  19.6 °C 29.86in /  1011.1hPa West 11.0mph /  17.7km/h 12.0mph /  19.3km/h 81% 0.00in /  0mm
13:49 73.4 °F /  23 °C 67.2 °F /  19.6 °C 29.87in /  1011.4hPa WSW 6.0mph /  9.7km/h 12.0mph /  19.3km/h 81% 0.00in /  0mm
13:54 73.1 °F /  22.8 °C 66.9 °F /  19.4 °C 29.86in /  1011.1hPa WSW 6.0mph /  9.7km/h 13.0mph /  20.9km/h 81% 0.00in /  0mm
13:59 73.3 °F /  22.9 °C 66.8 °F /  19.3 °C 29.87in /  1011.4hPa WSW 7.0mph /  11.3km/h 15.0mph /  24.1km/h 80% 0.00in /  0mm
14:04 73.5 °F /  23.1 °C 67.3 °F /  19.6 °C 29.87in /  1011.4hPa WSW 3.0mph /  4.8km/h 10.0mph /  16.1km/h 81% 0.00in /  0mm
14:09 73.7 °F /  23.2 °C 67.1 °F /  19.5 °C 29.87in /  1011.4hPa West 6.0mph /  9.7km/h 13.0mph /  20.9km/h 80% 0.00in /  0mm
14:14 73.6 °F /  23.1 °C 66.3 °F /  19.1 °C 29.87in /  1011.4hPa WSW 6.0mph /  9.7km/h 15.0mph /  24.1km/h 78% 0.00in /  0mm
14:19 73.4 °F /  23 °C 66.5 °F /  19.2 °C 29.87in /  1011.4hPa SW 11.0mph /  17.7km/h 16.0mph /  25.7km/h 79% 0.00in /  0mm
14:24 73.4 °F /  23 °C 66.5 °F /  19.2 °C 29.87in /  1011.4hPa WSW 8.0mph /  12.9km/h 18.0mph /  29km/h 79% 0.00in /  0mm
14:29 73.8 °F /  23.2 °C 66.9 °F /  19.4 °C 29.88in /  1011.7hPa WSW 8.0mph /  12.9km/h 18.0mph /  29km/h 79% 0.00in /  0mm
14:34 74.0 °F /  23.3 °C 66.7 °F /  19.3 °C 29.88in /  1011.7hPa WSW 8.0mph /  12.9km/h 20.0mph /  32.2km/h 78% 0.00in /  0mm
14:39 74.0 °F /  23.3 °C 66.7 °F /  19.3 °C 29.88in /  1011.7hPa WSW 9.0mph /  14.5km/h 20.0mph /  32.2km/h 78% 0.00in /  0mm
14:44 73.9 °F /  23.3 °C 66.6 °F /  19.2 °C 29.88in /  1011.7hPa WSW 9.0mph /  14.5km/h 21.0mph /  33.8km/h 78% 0.00in /  0mm
14:49 74.5 °F /  23.6 °C 67.6 °F /  19.8 °C 29.88in /  1011.7hPa WSW 8.0mph /  12.9km/h 21.0mph /  33.8km/h 79% 0.00in /  0mm
14:54 74.5 °F /  23.6 °C 67.6 °F /  19.8 °C 29.87in /  1011.4hPa SW 7.0mph /  11.3km/h 14.0mph /  22.5km/h 79% 0.00in /  0mm
14:59 75.3 °F /  24.1 °C 68.0 °F /  20 °C 29.87in /  1011.4hPa WSW 7.0mph /  11.3km/h 12.0mph /  19.3km/h 78% 0.00in /  0mm
15:04 74.6 °F /  23.7 °C 67.7 °F /  19.8 °C 29.88in /  1011.7hPa SSW 9.0mph /  14.5km/h 14.0mph /  22.5km/h 79% 0.00in /  0mm
15:09 73.7 °F /  23.2 °C 66.4 °F /  19.1 °C 29.88in /  1011.7hPa SSW 9.0mph /  14.5km/h 18.0mph /  29km/h 78% 0.00in /  0mm
15:14 73.5 °F /  23.1 °C 66.6 °F /  19.2 °C 29.88in /  1011.7hPa SW 8.0mph /  12.9km/h 17.0mph /  27.4km/h 79% 0.00in /  0mm
15:19 73.3 °F /  22.9 °C 66.8 °F /  19.3 °C 29.88in /  1011.7hPa SW 9.0mph /  14.5km/h 15.0mph /  24.1km/h 80% 0.00in /  0mm
15:24 73.5 °F /  23.1 °C 66.9 °F /  19.4 °C 29.87in /  1011.4hPa SW 8.0mph /  12.9km/h 15.0mph /  24.1km/h 80% 0.00in /  0mm
15:29 73.5 °F /  23.1 °C 66.6 °F /  19.2 °C 29.87in /  1011.4hPa SSW 6.0mph /  9.7km/h 15.0mph /  24.1km/h 79% 0.00in /  0mm
15:34 73.6 °F /  23.1 °C 67.0 °F /  19.4 °C 29.87in /  1011.4hPa WSW 8.0mph /  12.9km/h 16.0mph /  25.7km/h 80% 0.00in /  0mm
15:39 74.3 °F /  23.5 °C 67.7 °F /  19.8 °C 29.87in /  1011.4hPa WSW 7.0mph /  11.3km/h 16.0mph /  25.7km/h 80% 0.00in /  0mm
15:44 74.6 °F /  23.7 °C 67.7 °F /  19.8 °C 29.86in /  1011.1hPa SSW 5.0mph /  8km/h 16.0mph /  25.7km/h 79% 0.00in /  0mm
15:49 74.8 °F /  23.8 °C 67.5 °F /  19.7 °C 29.86in /  1011.1hPa WSW 6.0mph /  9.7km/h 16.0mph /  25.7km/h 78% 0.00in /  0mm
15:54 75.1 °F /  23.9 °C 67.4 °F /  19.7 °C 29.86in /  1011.1hPa SW 7.0mph /  11.3km/h 16.0mph /  25.7km/h 77% 0.00in /  0mm
15:59 75.1 °F /  23.9 °C 67.4 °F /  19.7 °C 29.86in /  1011.1hPa SW 7.0mph /  11.3km/h 14.0mph /  22.5km/h 77% 0.00in /  0mm
16:04 75.1 °F /  23.9 °C 67.0 °F /  19.4 °C 29.86in /  1011.1hPa WSW 4.0mph /  6.4km/h 16.0mph /  25.7km/h 76% 0.00in /  0mm
16:09 75.5 °F /  24.2 °C 67.8 °F /  19.9 °C 29.85in /  1010.7hPa West 6.0mph /  9.7km/h 14.0mph /  22.5km/h 77% 0.00in /  0mm
16:14 76.0 °F /  24.4 °C 68.3 °F /  20.2 °C 29.85in /  1010.7hPa WSW 5.0mph /  8km/h 11.0mph /  17.7km/h 77% 0.00in /  0mm
16:19 75.9 °F /  24.4 °C 67.8 °F /  19.9 °C 29.85in /  1010.7hPa West 8.0mph /  12.9km/h 14.0mph /  22.5km/h 76% 0.00in /  0mm
16:24 75.8 °F /  24.3 °C 67.7 °F /  19.8 °C 29.84in /  1010.4hPa WSW 7.0mph /  11.3km/h 14.0mph /  22.5km/h 76% 0.00in /  0mm
16:29 75.7 °F /  24.3 °C 67.2 °F /  19.6 °C 29.84in /  1010.4hPa SW 7.0mph /  11.3km/h 14.0mph /  22.5km/h 75% 0.00in /  0mm
16:34 76.0 °F /  24.4 °C 67.1 °F /  19.5 °C 29.84in /  1010.4hPa SW 7.0mph /  11.3km/h 15.0mph /  24.1km/h 74% 0.00in /  0mm
16:39 75.9 °F /  24.4 °C 67.4 °F /  19.7 °C 29.84in /  1010.4hPa WSW 7.0mph /  11.3km/h 15.0mph /  24.1km/h 75% 0.00in /  0mm
16:44 75.7 °F /  24.3 °C 67.2 °F /  19.6 °C 29.84in /  1010.4hPa WSW 8.0mph /  12.9km/h 18.0mph /  29km/h 75% 0.00in /  0mm
16:49 75.8 °F /  24.3 °C 67.3 °F /  19.6 °C 29.84in /  1010.4hPa SW 7.0mph /  11.3km/h 16.0mph /  25.7km/h 75% 0.00in /  0mm
16:54 75.3 °F /  24.1 °C 66.8 °F /  19.3 °C 29.84in /  1010.4hPa WSW 7.0mph /  11.3km/h 14.0mph /  22.5km/h 75% 0.00in /  0mm
16:59 75.6 °F /  24.2 °C 67.5 °F /  19.7 °C 29.84in /  1010.4hPa SW 13.0mph /  20.9km/h 13.0mph /  20.9km/h 76% 0.00in /  0mm
17:04 75.4 °F /  24.1 °C 66.9 °F /  19.4 °C 29.84in /  1010.4hPa WSW 5.0mph /  8km/h 16.0mph /  25.7km/h 75% 0.00in /  0mm
17:09 75.8 °F /  24.3 °C 67.3 °F /  19.6 °C 29.84in /  1010.4hPa WSW 6.0mph /  9.7km/h 10.0mph /  16.1km/h 75% 0.00in /  0mm
17:14 76.0 °F /  24.4 °C 67.5 °F /  19.7 °C 29.84in /  1010.4hPa WSW 8.0mph /  12.9km/h 10.0mph /  16.1km/h 75% 0.00in /  0mm
17:19 75.5 °F /  24.2 °C 67.0 °F /  19.4 °C 29.84in /  1010.4hPa SW 6.0mph /  9.7km/h 14.0mph /  22.5km/h 75% 0.00in /  0mm
17:24 75.3 °F /  24.1 °C 67.2 °F /  19.6 °C 29.84in /  1010.4hPa SW 7.0mph /  11.3km/h 14.0mph /  22.5km/h 76% 0.00in /  0mm
17:29 74.9 °F /  23.8 °C 66.8 °F /  19.3 °C 29.84in /  1010.4hPa SW 7.0mph /  11.3km/h 13.0mph /  20.9km/h 76% 0.00in /  0mm
17:34 74.8 °F /  23.8 °C 66.7 °F /  19.3 °C 29.84in /  1010.4hPa SW 7.0mph /  11.3km/h 16.0mph /  25.7km/h 76% 0.00in /  0mm
17:39 74.9 °F /  23.8 °C 67.2 °F /  19.6 °C 29.84in /  1010.4hPa SW 6.0mph /  9.7km/h 16.0mph /  25.7km/h 77% 0.00in /  0mm
17:44 75.0 °F /  23.9 °C 67.3 °F /  19.6 °C 29.84in /  1010.4hPa SW 6.0mph /  9.7km/h 11.0mph /  17.7km/h 77% 0.00in /  0mm
17:49 75.4 °F /  24.1 °C 66.5 °F /  19.2 °C 29.84in /  1010.4hPa WSW 8.0mph /  12.9km/h 12.0mph /  19.3km/h 74% 0.00in /  0mm
17:54 74.9 °F /  23.8 °C 66.4 °F /  19.1 °C 29.84in /  1010.4hPa WSW 6.0mph /  9.7km/h 13.0mph /  20.9km/h 75% 0.00in /  0mm
17:59 75.0 °F /  23.9 °C 66.5 °F /  19.2 °C 29.84in /  1010.4hPa West 5.0mph /  8km/h 14.0mph /  22.5km/h 75% 0.00in /  0mm
18:04 74.8 °F /  23.8 °C 66.7 °F /  19.3 °C 29.84in /  1010.4hPa WSW 5.0mph /  8km/h 11.0mph /  17.7km/h 76% 0.00in /  0mm
18:09 74.9 °F /  23.8 °C 66.1 °F /  18.9 °C 29.84in /  1010.4hPa WNW 6.0mph /  9.7km/h 15.0mph /  24.1km/h 74% 0.00in /  0mm
18:14 75.0 °F /  23.9 °C 66.5 °F /  19.2 °C 29.84in /  1010.4hPa SW 13.0mph /  20.9km/h 14.0mph /  22.5km/h 75% 0.00in /  0mm
18:19 74.8 °F /  23.8 °C 66.3 °F /  19.1 °C 29.84in /  1010.4hPa WSW 12.0mph /  19.3km/h 13.0mph /  20.9km/h 75% 0.00in /  0mm
18:24 74.7 °F /  23.7 °C 66.2 °F /  19 °C 29.84in /  1010.4hPa SW 8.0mph /  12.9km/h 17.0mph /  27.4km/h 75% 0.00in /  0mm
18:29 74.6 °F /  23.7 °C 66.1 °F /  18.9 °C 29.84in /  1010.4hPa WSW 8.0mph /  12.9km/h 17.0mph /  27.4km/h 75% 0.00in /  0mm
18:34 74.7 °F /  23.7 °C 66.2 °F /  19 °C 29.85in /  1010.7hPa WSW 7.0mph /  11.3km/h 13.0mph /  20.9km/h 75% 0.00in /  0mm
18:39 75.0 °F /  23.9 °C 66.1 °F /  18.9 °C 29.85in /  1010.7hPa SW 6.0mph /  9.7km/h 9.0mph /  14.5km/h 74% 0.00in /  0mm
18:44 74.8 °F /  23.8 °C 66.3 °F /  19.1 °C 29.85in /  1010.7hPa SSW 9.0mph /  14.5km/h 10.0mph /  16.1km/h 75% 0.00in /  0mm
18:49 74.6 °F /  23.7 °C 66.1 °F /  18.9 °C 29.84in /  1010.4hPa SW 4.0mph /  6.4km/h 13.0mph /  20.9km/h 75% 0.00in /  0mm
18:54 74.6 °F /  23.7 °C 66.1 °F /  18.9 °C 29.85in /  1010.7hPa SW 6.0mph /  9.7km/h 13.0mph /  20.9km/h 75% 0.00in /  0mm
19:04 74.0 °F /  23.3 °C 65.6 °F /  18.7 °C 29.85in /  1010.7hPa SW 7.0mph /  11.3km/h 13.0mph /  20.9km/h 75% 0.00in /  0mm
19:09 74.0 °F /  23.3 °C 66.0 °F /  18.9 °C 29.84in /  1010.4hPa West 4.0mph /  6.4km/h 10.0mph /  16.1km/h 76% 0.00in /  0mm
19:14 73.9 °F /  23.3 °C 65.5 °F /  18.6 °C 29.85in /  1010.7hPa West 7.0mph /  11.3km/h 12.0mph /  19.3km/h 75% 0.00in /  0mm
19:19 73.8 °F /  23.2 °C 65.8 °F /  18.8 °C 29.85in /  1010.7hPa WNW 5.0mph /  8km/h 9.0mph /  14.5km/h 76% 0.00in /  0mm
19:24 73.9 °F /  23.3 °C 65.9 °F /  18.8 °C 29.85in /  1010.7hPa SW 4.0mph /  6.4km/h 9.0mph /  14.5km/h 76% 0.00in /  0mm
19:29 73.8 °F /  23.2 °C 65.8 °F /  18.8 °C 29.85in /  1010.7hPa WSW 4.0mph /  6.4km/h 7.0mph /  11.3km/h 76% 0.00in /  0mm
19:34 73.6 °F /  23.1 °C 65.6 °F /  18.7 °C 29.86in /  1011.1hPa WSW 10.0mph /  16.1km/h 10.0mph /  16.1km/h 76% 0.00in /  0mm
19:39 73.3 °F /  22.9 °C 65.7 °F /  18.7 °C 29.86in /  1011.1hPa SW 4.0mph /  6.4km/h 10.0mph /  16.1km/h 77% 0.00in /  0mm
19:44 72.9 °F /  22.7 °C 65.6 °F /  18.7 °C 29.86in /  1011.1hPa SW 4.0mph /  6.4km/h 10.0mph /  16.1km/h 78% 0.00in /  0mm
19:49 72.6 °F /  22.6 °C 65.3 °F /  18.5 °C 29.86in /  1011.1hPa SW 5.0mph /  8km/h 9.0mph /  14.5km/h 78% 0.00in /  0mm
19:54 72.3 °F /  22.4 °C 65.4 °F /  18.6 °C 29.86in /  1011.1hPa WSW 4.0mph /  6.4km/h 9.0mph /  14.5km/h 79% 0.00in /  0mm
19:59 72.0 °F /  22.2 °C 65.5 °F /  18.6 °C 29.86in /  1011.1hPa WSW 4.0mph /  6.4km/h 9.0mph /  14.5km/h 80% 0.00in /  0mm
20:04 71.8 °F /  22.1 °C 65.3 °F /  18.5 °C 29.86in /  1011.1hPa WSW 4.0mph /  6.4km/h 9.0mph /  14.5km/h 80% 0.00in /  0mm
20:09 71.6 °F /  22 °C 65.5 °F /  18.6 °C 29.86in /  1011.1hPa WSW 3.0mph /  4.8km/h 8.0mph /  12.9km/h 81% 0.00in /  0mm
20:14 71.5 °F /  21.9 °C 65.4 °F /  18.6 °C 29.86in /  1011.1hPa WSW 3.0mph /  4.8km/h 6.0mph /  9.7km/h 81% 0.00in /  0mm
20:19 71.4 °F /  21.9 °C 65.3 °F /  18.5 °C 29.86in /  1011.1hPa WSW 2.0mph /  3.2km/h 9.0mph /  14.5km/h 81% 0.00in /  0mm
20:24 71.4 °F /  21.9 °C 65.3 °F /  18.5 °C 29.86in /  1011.1hPa SW 4.0mph /  6.4km/h 6.0mph /  9.7km/h 81% 0.00in /  0mm
20:29 71.3 °F /  21.8 °C 65.5 °F /  18.6 °C 29.86in /  1011.1hPa SW 2.0mph /  3.2km/h 5.0mph /  8km/h 82% 0.00in /  0mm
20:34 71.2 °F /  21.8 °C 65.4 °F /  18.6 °C 29.87in /  1011.4hPa WNW 5.0mph /  8km/h 5.0mph /  8km/h 82% 0.00in /  0mm
20:39 71.2 °F /  21.8 °C 65.4 °F /  18.6 °C 29.86in /  1011.1hPa SW 5.0mph /  8km/h 7.0mph /  11.3km/h 82% 0.00in /  0mm
20:44 71.0 °F /  21.7 °C 65.2 °F /  18.4 °C 29.86in /  1011.1hPa WSW 2.0mph /  3.2km/h 5.0mph /  8km/h 82% 0.00in /  0mm
20:49 70.9 °F /  21.6 °C 65.5 °F /  18.6 °C 29.87in /  1011.4hPa SW 3.0mph /  4.8km/h 6.0mph /  9.7km/h 83% 0.00in /  0mm
20:54 70.7 °F /  21.5 °C 65.3 °F /  18.5 °C 29.87in /  1011.4hPa SW 4.0mph /  6.4km/h 7.0mph /  11.3km/h 83% 0.00in /  0mm
20:59 70.5 °F /  21.4 °C 65.4 °F /  18.6 °C 29.87in /  1011.4hPa SW 3.0mph /  4.8km/h 7.0mph /  11.3km/h 84% 0.00in /  0mm
21:04 70.3 °F /  21.3 °C 65.2 °F /  18.4 °C 29.86in /  1011.1hPa SW 2.0mph /  3.2km/h 5.0mph /  8km/h 84% 0.00in /  0mm
21:09 70.2 °F /  21.2 °C 65.5 °F /  18.6 °C 29.86in /  1011.1hPa SW 2.0mph /  3.2km/h 5.0mph /  8km/h 85% 0.00in /  0mm
21:14 70.0 °F /  21.1 °C 65.3 °F /  18.5 °C 29.86in /  1011.1hPa SW 1.0mph /  1.6km/h 5.0mph /  8km/h 85% 0.00in /  0mm
21:19 69.9 °F /  21.1 °C 65.2 °F /  18.4 °C 29.86in /  1011.1hPa SSW 1.0mph /  1.6km/h 3.0mph /  4.8km/h 85% 0.00in /  0mm
21:24 69.9 °F /  21.1 °C 65.2 °F /  18.4 °C 29.86in /  1011.1hPa SW 1.0mph /  1.6km/h 3.0mph /  4.8km/h 85% 0.00in /  0mm
21:29 69.8 °F /  21 °C 65.1 °F /  18.4 °C 29.86in /  1011.1hPa Calm     85% 0.00in /  0mm
21:34 69.9 °F /  21.1 °C 65.2 °F /  18.4 °C 29.86in /  1011.1hPa SW 1.0mph /  1.6km/h 4.0mph /  6.4km/h 85% 0.00in /  0mm
21:39 70.0 °F /  21.1 °C 65.3 °F /  18.5 °C 29.86in /  1011.1hPa SSW 3.0mph /  4.8km/h 4.0mph /  6.4km/h 85% 0.00in /  0mm
21:44 70.1 °F /  21.2 °C 65.4 °F /  18.6 °C 29.86in /  1011.1hPa SW 2.0mph /  3.2km/h 5.0mph /  8km/h 85% 0.00in /  0mm
21:49 70.2 °F /  21.2 °C 65.1 °F /  18.4 °C 29.86in /  1011.1hPa SW 2.0mph /  3.2km/h 5.0mph /  8km/h 84% 0.00in /  0mm
21:54 70.4 °F /  21.3 °C 65.0 °F /  18.3 °C 29.86in /  1011.1hPa SSW 3.0mph /  4.8km/h 5.0mph /  8km/h 83% 0.00in /  0mm
21:59 70.6 °F /  21.4 °C 64.8 °F /  18.2 °C 29.86in /  1011.1hPa SW 3.0mph /  4.8km/h 7.0mph /  11.3km/h 82% 0.00in /  0mm
22:04 70.9 °F /  21.6 °C 64.8 °F /  18.2 °C 29.86in /  1011.1hPa SW 3.0mph /  4.8km/h 7.0mph /  11.3km/h 81% 0.00in /  0mm
22:09 71.1 °F /  21.7 °C 65.0 °F /  18.3 °C 29.87in /  1011.4hPa SW 3.0mph /  4.8km/h 6.0mph /  9.7km/h 81% 0.00in /  0mm
22:14 71.1 °F /  21.7 °C 64.6 °F /  18.1 °C 29.87in /  1011.4hPa SW 3.0mph /  4.8km/h 6.0mph /  9.7km/h 80% 0.00in /  0mm
22:19 71.3 °F /  21.8 °C 64.8 °F /  18.2 °C 29.86in /  1011.1hPa SW 1.0mph /  1.6km/h 4.0mph /  6.4km/h 80% 0.00in /  0mm
22:24 71.3 °F /  21.8 °C 64.4 °F /  18 °C 29.86in /  1011.1hPa SW 1.0mph /  1.6km/h 5.0mph /  8km/h 79% 0.00in /  0mm
22:29 71.3 °F /  21.8 °C 64.4 °F /  18 °C 29.86in /  1011.1hPa Calm   6.0mph /  9.7km/h 79% 0.00in /  0mm
22:34 71.3 °F /  21.8 °C 64.4 °F /  18 °C 29.86in /  1011.1hPa SSW 1.0mph /  1.6km/h 3.0mph /  4.8km/h 79% 0.00in /  0mm
22:39 71.2 °F /  21.8 °C 64.4 °F /  18 °C 29.85in /  1010.7hPa Calm   3.0mph /  4.8km/h 79% 0.00in /  0mm
22:44 71.1 °F /  21.7 °C 64.3 °F /  17.9 °C 29.85in /  1010.7hPa Calm     79% 0.00in /  0mm
22:49 71.0 °F /  21.7 °C 64.2 °F /  17.9 °C 29.86in /  1011.1hPa Calm     79% 0.00in /  0mm
22:54 71.0 °F /  21.7 °C 64.2 °F /  17.9 °C 29.86in /  1011.1hPa SW 1.0mph /  1.6km/h 4.0mph /  6.4km/h 79% 0.00in /  0mm
22:59 71.1 °F /  21.7 °C 64.3 °F /  17.9 °C 29.86in /  1011.1hPa SW 2.0mph /  3.2km/h 6.0mph /  9.7km/h 79% 0.00in /  0mm
23:04 71.2 °F /  21.8 °C 64.4 °F /  18 °C 29.86in /  1011.1hPa SW 2.0mph /  3.2km/h 6.0mph /  9.7km/h 79% 0.00in /  0mm
23:09 71.4 °F /  21.9 °C 64.5 °F /  18.1 °C 29.86in /  1011.1hPa SW 3.0mph /  4.8km/h 7.0mph /  11.3km/h 79% 0.00in /  0mm
23:14 71.5 °F /  21.9 °C 64.6 °F /  18.1 °C 29.87in /  1011.4hPa WSW 1.0mph /  1.6km/h 7.0mph /  11.3km/h 79% 0.00in /  0mm
23:19 71.6 °F /  22 °C 64.7 °F /  18.2 °C 29.87in /  1011.4hPa SW 4.0mph /  6.4km/h 9.0mph /  14.5km/h 79% 0.00in /  0mm
23:24 71.9 °F /  22.2 °C 65.0 °F /  18.3 °C 29.86in /  1011.1hPa WSW 4.0mph /  6.4km/h 9.0mph /  14.5km/h 79% 0.00in /  0mm
23:29 72.0 °F /  22.2 °C 65.5 °F /  18.6 °C 29.87in /  1011.4hPa WSW 5.0mph /  8km/h 12.0mph /  19.3km/h 80% 0.00in /  0mm
23:34 72.1 °F /  22.3 °C 65.6 °F /  18.7 °C 29.87in /  1011.4hPa WSW 5.0mph /  8km/h 12.0mph /  19.3km/h 80% 0.00in /  0mm
23:39 72.0 °F /  22.2 °C 66.2 °F /  19 °C 29.86in /  1011.1hPa WSW 5.0mph /  8km/h 10.0mph /  16.1km/h 82% 0.00in /  0mm
23:44 71.9 °F /  22.2 °C 66.1 °F /  18.9 °C 29.86in /  1011.1hPa WSW 4.0mph /  6.4km/h 10.0mph /  16.1km/h 82% 0.00in /  0mm
23:49 71.7 °F /  22.1 °C 66.3 °F /  19.1 °C 29.86in /  1011.1hPa West 4.0mph /  6.4km/h 11.0mph /  17.7km/h 83% 0.00in /  0mm
23:59 71.5 °F /  21.9 °C 66.4 °F /  19.1 °C 29.85in /  1010.7hPa WSW 4.0mph /  6.4km/h 9.0mph /  14.5km/h 84% 0.00in /  0mm
Buffalo, New York, USA
Compliments of Weather Underground - 2.5 mb